createdAt,value
2022-11-27T00:01:11.686Z,0.98
2022-11-27T00:04:53.401Z,2.08
2022-11-27T00:08:35.129Z,1.88
2022-11-27T00:12:16.882Z,2.20
2022-11-27T00:15:58.649Z,2.13
2022-11-27T00:19:40.593Z,0.90
2022-11-27T00:23:22.437Z,4.10
2022-11-27T00:27:04.209Z,1.27
2022-11-27T00:30:46.150Z,1.08
2022-11-27T00:34:27.946Z,2.15
2022-11-27T00:38:09.670Z,1.85
2022-11-27T00:41:51.414Z,1.00
2022-11-27T00:45:33.097Z,1.98
2022-11-27T00:49:15.185Z,4.93
2022-11-27T00:52:57.064Z,2.50
2022-11-27T00:56:39.361Z,2.15
2022-11-27T01:00:21.173Z,3.13
2022-11-27T01:04:03.652Z,4.18
2022-11-27T01:07:45.394Z,4.60
2022-11-27T01:11:30.823Z,3.47
2022-11-27T01:15:12.533Z,6.22
2022-11-27T01:18:55.457Z,6.70
2022-11-27T01:22:37.156Z,5.40
2022-11-27T01:26:20.235Z,5.30
2022-11-27T01:30:02.029Z,4.95
2022-11-27T01:33:44.320Z,5.15
2022-11-27T01:37:25.993Z,9.10
2022-11-27T01:41:14.551Z,9.52
2022-11-27T01:44:56.612Z,5.97
2022-11-27T01:48:38.286Z,8.77
2022-11-27T01:52:28.164Z,7.95
2022-11-27T01:56:09.885Z,6.88
2022-11-27T01:59:52.081Z,5.75
2022-11-27T02:03:33.930Z,7.50
2022-11-27T02:07:15.731Z,7.72
2022-11-27T02:11:02.937Z,8.18
2022-11-27T02:15:18.694Z,6.68
2022-11-27T02:19:29.566Z,7.88
2022-11-27T02:23:30.052Z,6.45
2022-11-27T02:27:26.811Z,7.65
2022-11-27T02:31:38.225Z,8.88
2022-11-27T02:35:23.523Z,8.65
2022-11-27T02:39:07.842Z,6.55
2022-11-27T02:42:57.935Z,5.45
2022-11-27T02:46:39.683Z,8.43
2022-11-27T02:50:22.573Z,8.23
2022-11-27T02:54:06.353Z,9.70
2022-11-27T03:01:31.789Z,9.10
2022-11-27T03:05:15.089Z,6.30
2022-11-27T03:09:04.096Z,8.23
2022-11-27T03:12:47.090Z,10.88
2022-11-27T03:16:28.809Z,5.63
2022-11-27T03:20:28.053Z,7.72
2022-11-27T03:24:10.331Z,8.60
2022-11-27T03:28:03.865Z,8.05
2022-11-27T03:31:45.636Z,12.77
2022-11-27T03:35:27.669Z,12.05
2022-11-27T03:39:09.432Z,12.20
2022-11-27T03:43:01.389Z,13.18
2022-11-27T03:47:01.913Z,13.32
2022-11-27T03:51:08.888Z,9.55
2022-11-27T03:55:16.661Z,9.02
2022-11-27T03:59:18.222Z,17.13
2022-11-27T04:02:59.931Z,7.18
2022-11-27T04:06:41.591Z,10.43
2022-11-27T04:10:23.327Z,10.75
2022-11-27T04:14:05.019Z,13.27
2022-11-27T04:17:46.677Z,9.57
2022-11-27T04:21:28.401Z,9.48
2022-11-27T04:25:10.075Z,11.88
2022-11-27T04:28:51.831Z,12.30
2022-11-27T04:32:33.592Z,11.73
2022-11-27T04:36:15.276Z,12.95
2022-11-27T04:39:56.953Z,14.75
2022-11-27T04:43:38.862Z,9.57
2022-11-27T04:47:20.550Z,10.20
2022-11-27T04:51:02.309Z,13.13
2022-11-27T04:54:46.097Z,11.02
2022-11-27T04:58:27.767Z,14.60
2022-11-27T05:02:09.769Z,8.45
2022-11-27T05:05:56.422Z,8.13
2022-11-27T05:09:38.089Z,16.25
2022-11-27T05:13:19.813Z,17.27
2022-11-27T05:17:01.629Z,19.73
2022-11-27T05:20:43.369Z,14.18
2022-11-27T05:24:26.371Z,17.38
2022-11-27T05:28:08.046Z,18.73
2022-11-27T05:31:49.788Z,17.92
2022-11-27T05:35:31.495Z,16.88
2022-11-27T05:39:13.267Z,20.70
2022-11-27T05:42:54.971Z,15.25
2022-11-27T05:46:36.754Z,17.20
2022-11-27T05:50:18.742Z,19.83
2022-11-27T05:54:00.441Z,18.35
2022-11-27T05:57:42.106Z,18.70
2022-11-27T06:01:23.981Z,18.52
2022-11-27T06:05:06.116Z,17.48
2022-11-27T06:08:47.935Z,14.50
2022-11-27T06:12:32.021Z,15.80
2022-11-27T06:16:15.451Z,18.58
2022-11-27T06:19:57.227Z,14.05
2022-11-27T06:23:40.239Z,18.70
2022-11-27T06:27:21.962Z,20.15
2022-11-27T06:31:21.241Z,15.55
2022-11-27T06:35:03.017Z,22.80
2022-11-27T06:38:45.094Z,17.73
2022-11-27T06:42:29.909Z,21.95
2022-11-27T06:46:13.823Z,20.08
2022-11-27T06:49:55.605Z,21.60
2022-11-27T06:53:37.575Z,20.08
2022-11-27T06:57:19.261Z,16.15
2022-11-27T07:01:05.575Z,22.42
2022-11-27T07:05:06.308Z,25.00
2022-11-27T07:08:48.038Z,22.90
2022-11-27T07:12:29.731Z,20.40
2022-11-27T07:16:11.709Z,16.30
2022-11-27T07:19:53.471Z,19.17
2022-11-27T07:23:35.658Z,15.45
2022-11-27T07:27:17.325Z,15.85
2022-11-27T07:30:59.176Z,19.25
2022-11-27T07:34:40.987Z,16.83
2022-11-27T07:38:22.745Z,22.58
2022-11-27T07:42:36.491Z,17.35
2022-11-27T07:46:07.195Z,19.25
2022-11-27T07:49:48.893Z,12.80
2022-11-27T07:53:30.622Z,17.70
2022-11-27T07:57:12.385Z,14.98
2022-11-27T08:00:54.114Z,18.63
2022-11-27T08:04:35.893Z,15.75
2022-11-27T08:08:17.660Z,19.77
2022-11-27T08:11:59.373Z,22.20
2022-11-27T08:15:41.166Z,18.15
2022-11-27T08:19:22.953Z,20.90
2022-11-27T08:23:04.814Z,29.30
2022-11-27T08:26:46.487Z,25.23
2022-11-27T08:30:28.657Z,20.60
2022-11-27T08:34:10.352Z,23.95
2022-11-27T08:37:52.090Z,24.23
2022-11-27T08:41:33.769Z,24.60
2022-11-27T08:45:15.508Z,22.23
2022-11-27T08:48:59.233Z,25.67
2022-11-27T08:56:24.350Z,24.35
2022-11-27T09:00:06.906Z,24.25
2022-11-27T09:03:48.852Z,22.40
2022-11-27T09:07:30.661Z,22.98
2022-11-27T09:11:12.738Z,16.27
2022-11-27T09:14:54.559Z,20.77
2022-11-27T09:18:36.276Z,23.80
2022-11-27T09:22:19.027Z,29.58
2022-11-27T09:26:05.088Z,23.85
2022-11-27T09:29:46.803Z,25.45
2022-11-27T09:33:29.721Z,25.40
2022-11-27T09:37:11.521Z,30.17
2022-11-27T09:40:59.182Z,26.38
2022-11-27T09:44:49.369Z,28.95
2022-11-27T09:48:36.532Z,30.48
2022-11-27T09:52:25.573Z,31.63
2022-11-27T09:56:07.281Z,35.75
2022-11-27T09:59:50.658Z,29.92
2022-11-27T10:03:32.784Z,26.30
2022-11-27T10:07:39.694Z,33.80
2022-11-27T10:12:00.976Z,30.30
2022-11-27T10:16:07.624Z,36.22
2022-11-27T10:20:11.875Z,27.35
2022-11-27T10:24:03.688Z,29.33
2022-11-27T10:28:05.737Z,27.27
2022-11-27T10:31:49.707Z,27.33
2022-11-27T10:35:31.773Z,25.00
2022-11-27T10:39:17.380Z,29.35
2022-11-27T10:43:10.345Z,27.98
2022-11-27T10:46:52.473Z,33.20
2022-11-27T10:50:34.328Z,29.08
2022-11-27T10:54:28.841Z,24.77
2022-11-27T10:58:10.507Z,23.63
2022-11-27T11:01:55.507Z,31.45
2022-11-27T11:06:04.219Z,23.83
2022-11-27T11:09:38.905Z,28.75
2022-11-27T11:13:27.858Z,23.20
2022-11-27T11:17:15.752Z,36.17
2022-11-27T11:20:59.462Z,27.08
2022-11-27T11:28:27.719Z,30.13
2022-11-27T11:32:13.877Z,33.47
2022-11-27T11:35:57.292Z,30.35
2022-11-27T11:39:46.158Z,32.35
2022-11-27T11:43:36.331Z,30.33
2022-11-27T11:47:18.796Z,28.88
2022-11-27T11:51:04.723Z,28.83
2022-11-27T11:55:03.698Z,30.30
2022-11-27T11:58:53.619Z,27.08
2022-11-27T12:03:01.473Z,28.45
2022-11-27T12:06:51.269Z,33.53
2022-11-27T12:10:38.158Z,26.73
2022-11-27T12:14:40.737Z,27.17
2022-11-27T12:18:47.972Z,35.88
2022-11-27T12:22:48.333Z,27.90
2022-11-27T12:26:56.039Z,33.53
2022-11-27T12:31:03.628Z,38.60
2022-11-27T12:35:01.208Z,31.80
2022-11-27T12:38:48.910Z,34.00
2022-11-27T12:43:10.849Z,29.92
2022-11-27T12:46:58.645Z,29.98
2022-11-27T12:50:56.597Z,35.42
2022-11-27T12:54:48.166Z,35.80
2022-11-27T12:58:32.977Z,37.13
2022-11-27T13:02:32.871Z,38.33
2022-11-27T13:06:17.545Z,39.42
2022-11-27T13:10:26.106Z,39.15
2022-11-27T13:14:11.214Z,28.05
2022-11-27T13:17:58.820Z,29.08
2022-11-27T13:21:40.656Z,34.78
2022-11-27T13:25:22.428Z,34.78
2022-11-27T13:29:23.476Z,27.42
2022-11-27T13:33:07.077Z,38.55
2022-11-27T13:36:56.259Z,30.42
2022-11-27T13:40:40.497Z,36.03
2022-11-27T13:44:24.930Z,29.48
2022-11-27T13:48:25.289Z,37.85
2022-11-27T13:52:14.573Z,37.65
2022-11-27T13:55:57.688Z,33.97
2022-11-27T13:59:39.766Z,35.83
2022-11-27T14:03:26.372Z,37.45
2022-11-27T14:07:16.115Z,31.85
2022-11-27T14:10:59.733Z,36.20
2022-11-27T14:14:41.994Z,32.55
2022-11-27T14:18:23.852Z,28.88
2022-11-27T14:22:48.521Z,31.70
2022-11-27T14:26:40.625Z,29.92
2022-11-27T14:30:39.641Z,24.90
2022-11-27T14:34:34.330Z,28.75
2022-11-27T14:38:16.423Z,32.83
2022-11-27T14:42:07.966Z,32.08
2022-11-27T14:45:54.398Z,31.65
2022-11-27T14:49:36.111Z,28.50
2022-11-27T14:53:20.746Z,36.78
2022-11-27T14:57:02.559Z,38.45
2022-11-27T15:00:51.854Z,33.75
2022-11-27T15:04:38.194Z,33.05
2022-11-27T15:08:19.920Z,30.27
2022-11-27T15:12:29.630Z,30.13
2022-11-27T15:16:19.588Z,28.17
2022-11-27T15:20:01.995Z,35.95
2022-11-27T15:24:02.670Z,31.13
2022-11-27T15:27:45.906Z,29.35
2022-11-27T15:31:37.416Z,35.95
2022-11-27T15:35:27.645Z,28.92
2022-11-27T15:39:17.540Z,32.65
2022-11-27T15:43:00.273Z,29.95
2022-11-27T15:46:41.991Z,37.05
2022-11-27T15:50:23.658Z,27.42
2022-11-27T15:54:07.500Z,35.35
2022-11-27T15:57:49.261Z,29.55
2022-11-27T16:01:52.009Z,30.33
2022-11-27T16:05:33.854Z,27.67
2022-11-27T16:09:15.569Z,35.10
2022-11-27T16:12:58.841Z,27.02
2022-11-27T16:16:40.759Z,34.15
2022-11-27T16:20:22.479Z,35.50
2022-11-27T16:24:10.589Z,44.80
2022-11-27T16:27:54.584Z,35.03
2022-11-27T16:31:39.916Z,32.35
2022-11-27T16:35:21.702Z,41.17
2022-11-27T16:39:03.416Z,38.55
2022-11-27T16:42:45.364Z,46.47
2022-11-27T16:46:28.328Z,38.80
2022-11-27T16:50:10.318Z,34.73
2022-11-27T16:53:54.150Z,36.20
2022-11-27T16:57:35.822Z,32.33
2022-11-27T17:01:29.039Z,30.70
2022-11-27T17:05:10.810Z,30.63
2022-11-27T17:08:54.123Z,49.25
2022-11-27T17:12:37.037Z,27.10
2022-11-27T17:16:19.291Z,35.53
2022-11-27T17:20:01.084Z,34.33
2022-11-27T17:23:47.129Z,44.75
2022-11-27T17:27:28.856Z,44.03
2022-11-27T17:31:11.743Z,34.55
2022-11-27T17:34:53.665Z,37.30
2022-11-27T17:38:35.428Z,32.42
2022-11-27T17:42:22.465Z,31.17
2022-11-27T17:46:16.066Z,41.72
2022-11-27T17:49:57.820Z,36.60
2022-11-27T17:53:40.628Z,43.60
2022-11-27T17:57:22.396Z,49.90
2022-11-27T18:01:05.195Z,54.55
2022-11-27T18:04:48.147Z,49.13
2022-11-27T18:08:29.950Z,46.17
2022-11-27T18:12:12.745Z,43.08
2022-11-27T18:15:54.461Z,42.20
2022-11-27T18:19:36.213Z,39.78
2022-11-27T18:23:18.128Z,36.63
2022-11-27T18:27:09.161Z,26.33
2022-11-27T18:30:51.113Z,40.58
2022-11-27T18:34:33.353Z,37.47
2022-11-27T18:38:15.232Z,35.13
2022-11-27T18:41:57.226Z,34.90
2022-11-27T18:45:38.932Z,46.30
2022-11-27T18:49:22.866Z,36.72
2022-11-27T18:53:05.004Z,40.25
2022-11-27T18:56:46.677Z,37.05
2022-11-27T19:00:28.402Z,29.85
2022-11-27T19:04:11.003Z,29.73
2022-11-27T19:07:52.740Z,32.72
2022-11-27T19:11:35.144Z,27.15
2022-11-27T19:15:16.997Z,54.60
2022-11-27T19:18:59.117Z,43.40
2022-11-27T19:22:41.005Z,34.08
2022-11-27T19:26:24.058Z,38.63
2022-11-27T19:30:06.453Z,34.13
2022-11-27T19:33:55.533Z,35.53
2022-11-27T19:37:37.373Z,46.38
2022-11-27T19:41:19.060Z,35.95
2022-11-27T19:45:00.742Z,35.78
2022-11-27T19:52:48.344Z,33.38
2022-11-27T19:56:32.329Z,34.88
2022-11-27T20:00:14.377Z,35.65
2022-11-27T20:03:56.186Z,33.47
2022-11-27T20:07:37.922Z,36.45
2022-11-27T20:11:21.167Z,34.38
2022-11-27T20:15:07.668Z,36.55
2022-11-27T20:18:49.429Z,33.45
2022-11-27T20:22:32.560Z,38.25
2022-11-27T20:26:16.082Z,35.33
2022-11-27T20:30:00.035Z,36.05
2022-11-27T20:33:42.881Z,40.92
2022-11-27T20:37:24.609Z,41.37
2022-11-27T20:41:10.565Z,39.97
2022-11-27T20:44:53.485Z,37.40
2022-11-27T20:48:35.259Z,38.37
2022-11-27T20:52:20.465Z,37.50
2022-11-27T20:56:05.874Z,32.05
2022-11-27T20:59:47.553Z,39.90
2022-11-27T21:03:29.725Z,31.42
2022-11-27T21:07:11.827Z,38.80
2022-11-27T21:10:53.548Z,47.22
2022-11-27T21:14:36.122Z,41.67
2022-11-27T21:18:17.801Z,39.40
2022-11-27T21:22:00.689Z,40.83
2022-11-27T21:25:43.601Z,31.17
2022-11-27T21:29:27.719Z,37.23
2022-11-27T21:33:10.694Z,38.58
2022-11-27T21:36:52.408Z,38.23
2022-11-27T21:40:34.217Z,33.88
2022-11-27T21:44:17.887Z,34.38
2022-11-27T21:47:59.581Z,42.58
2022-11-27T21:51:42.541Z,36.88
2022-11-27T21:55:24.226Z,36.40
2022-11-27T21:59:10.396Z,41.60
2022-11-27T22:02:52.235Z,38.83
2022-11-27T22:06:38.836Z,35.53
2022-11-27T22:10:20.537Z,34.03
2022-11-27T22:14:06.654Z,33.67
2022-11-27T22:17:48.609Z,35.85
2022-11-27T22:21:30.870Z,28.67
2022-11-27T22:25:12.622Z,27.83
2022-11-27T22:28:54.372Z,28.92
2022-11-27T22:32:37.073Z,22.10
2022-11-27T22:36:22.114Z,28.05
2022-11-27T22:40:04.401Z,35.95
2022-11-27T22:43:46.159Z,30.20
2022-11-27T22:47:27.909Z,25.65
2022-11-27T22:51:09.714Z,32.72
2022-11-27T22:54:51.455Z,32.90
2022-11-27T22:58:36.057Z,26.55
2022-11-27T23:02:20.191Z,29.63
2022-11-27T23:06:01.935Z,25.40
2022-11-27T23:09:43.779Z,22.80
2022-11-27T23:13:25.497Z,25.98
2022-11-27T23:17:07.241Z,28.33
2022-11-27T23:20:48.987Z,31.30
2022-11-27T23:24:30.826Z,30.25
2022-11-27T23:28:12.493Z,26.55
2022-11-27T23:31:54.246Z,25.20
2022-11-27T23:35:36.010Z,32.40
2022-11-27T23:39:17.669Z,26.58
2022-11-27T23:42:59.352Z,24.80
2022-11-27T23:46:41.060Z,23.45
2022-11-27T23:50:22.749Z,17.48
2022-11-27T23:54:08.538Z,21.35
2022-11-27T23:57:50.209Z,22.23
